sensor_id;sensor_type;location;lat;lon;timestamp;P1;durP1;ratioP1;P2;durP2;ratioP2
55655;SDS011;41530;52.382;5.270;2024-03-02T00:02:17;1.20;;;0.77;;
55655;SDS011;41530;52.382;5.270;2024-03-02T00:04:55;2.38;;;0.80;;
55655;SDS011;41530;52.382;5.270;2024-03-02T00:07:33;1.65;;;0.70;;
55655;SDS011;41530;52.382;5.270;2024-03-02T00:13:27;1.20;;;0.80;;
55655;SDS011;41530;52.382;5.270;2024-03-02T00:16:22;2.63;;;0.73;;
55655;SDS011;41530;52.382;5.270;2024-03-02T00:19:05;1.50;;;0.50;;
55655;SDS011;41530;52.382;5.270;2024-03-02T00:22:03;2.67;;;0.90;;
55655;SDS011;41530;52.382;5.270;2024-03-02T00:24:35;1.15;;;0.80;;
55655;SDS011;41530;52.382;5.270;2024-03-02T00:27:19;3.92;;;0.93;;
55655;SDS011;41530;52.382;5.270;2024-03-02T00:33:45;3.13;;;0.80;;
55655;SDS011;41530;52.382;5.270;2024-03-02T00:36:30;2.78;;;0.73;;
55655;SDS011;41530;52.382;5.270;2024-03-02T00:45:29;0.90;;;0.77;;
55655;SDS011;41530;52.382;5.270;2024-03-02T00:48:08;1.85;;;0.80;;
55655;SDS011;41530;52.382;5.270;2024-03-02T00:51:00;2.67;;;0.90;;
55655;SDS011;41530;52.382;5.270;2024-03-02T00:53:41;1.05;;;0.80;;
55655;SDS011;41530;52.382;5.270;2024-03-02T00:56:13;3.25;;;1.00;;
55655;SDS011;41530;52.382;5.270;2024-03-02T00:59:38;2.10;;;0.80;;
55655;SDS011;41530;52.382;5.270;2024-03-02T01:02:08;1.30;;;0.73;;
55655;SDS011;41530;52.382;5.270;2024-03-02T01:04:47;1.40;;;0.60;;
55655;SDS011;41530;52.382;5.270;2024-03-02T01:07:25;2.03;;;0.60;;
55655;SDS011;41530;52.382;5.270;2024-03-02T01:10:04;1.35;;;0.80;;
55655;SDS011;41530;52.382;5.270;2024-03-02T01:12:36;1.65;;;0.45;;
55655;SDS011;41530;52.382;5.270;2024-03-02T01:15:10;1.40;;;0.73;;
55655;SDS011;41530;52.382;5.270;2024-03-02T01:17:59;2.05;;;0.63;;
55655;SDS011;41530;52.382;5.270;2024-03-02T01:20:29;1.23;;;0.47;;
55655;SDS011;41530;52.382;5.270;2024-03-02T01:23:20;0.43;;;0.38;;
55655;SDS011;41530;52.382;5.270;2024-03-02T01:26:06;0.77;;;0.50;;
55655;SDS011;41530;52.382;5.270;2024-03-02T01:28:45;1.58;;;0.63;;
55655;SDS011;41530;52.382;5.270;2024-03-02T01:31:29;0.77;;;0.32;;
55655;SDS011;41530;52.382;5.270;2024-03-02T01:33:57;1.27;;;0.50;;
55655;SDS011;41530;52.382;5.270;2024-03-02T01:36:33;0.90;;;0.30;;
55655;SDS011;41530;52.382;5.270;2024-03-02T01:39:09;0.50;;;0.40;;
55655;SDS011;41530;52.382;5.270;2024-03-02T01:41:40;0.38;;;0.38;;
55655;SDS011;41530;52.382;5.270;2024-03-02T01:44:09;0.40;;;0.40;;
55655;SDS011;41530;52.382;5.270;2024-03-02T01:46:43;0.30;;;0.30;;
55655;SDS011;41530;52.382;5.270;2024-03-02T01:49:14;0.40;;;0.35;;
55655;SDS011;41530;52.382;5.270;2024-03-02T01:51:43;0.40;;;0.32;;
55655;SDS011;41530;52.382;5.270;2024-03-02T01:54:14;0.28;;;0.28;;
55655;SDS011;41530;52.382;5.270;2024-03-02T01:56:49;0.30;;;0.30;;
55655;SDS011;41530;52.382;5.270;2024-03-02T01:59:42;1.27;;;0.50;;
55655;SDS011;41530;52.382;5.270;2024-03-02T02:02:21;0.98;;;0.30;;
55655;SDS011;41530;52.382;5.270;2024-03-02T02:04:50;0.40;;;0.40;;
55655;SDS011;41530;52.382;5.270;2024-03-02T02:07:17;0.57;;;0.40;;
55655;SDS011;41530;52.382;5.270;2024-03-02T02:09:47;0.55;;;0.30;;
55655;SDS011;41530;52.382;5.270;2024-03-02T02:12:19;0.40;;;0.40;;
55655;SDS011;41530;52.382;5.270;2024-03-02T02:15:00;0.30;;;0.30;;
55655;SDS011;41530;52.382;5.270;2024-03-02T02:17:32;0.50;;;0.40;;
55655;SDS011;41530;52.382;5.270;2024-03-02T02:20:01;0.30;;;0.20;;
55655;SDS011;41530;52.382;5.270;2024-03-02T02:22:28;0.22;;;0.20;;
55655;SDS011;41530;52.382;5.270;2024-03-02T02:24:59;0.30;;;0.30;;
55655;SDS011;41530;52.382;5.270;2024-03-02T02:27:29;0.20;;;0.20;;
55655;SDS011;41530;52.382;5.270;2024-03-02T02:30:12;0.30;;;0.30;;
55655;SDS011;41530;52.382;5.270;2024-03-02T02:32:45;1.27;;;0.25;;
55655;SDS011;41530;52.382;5.270;2024-03-02T02:35:30;0.32;;;0.30;;
55655;SDS011;41530;52.382;5.270;2024-03-02T02:38:02;0.28;;;0.28;;
55655;SDS011;41530;52.382;5.270;2024-03-02T02:40:35;0.50;;;0.40;;
55655;SDS011;41530;52.382;5.270;2024-03-02T02:43:05;1.40;;;0.63;;
55655;SDS011;41530;52.382;5.270;2024-03-02T02:45:34;0.35;;;0.35;;
55655;SDS011;41530;52.382;5.270;2024-03-02T02:48:04;0.95;;;0.30;;
55655;SDS011;41530;52.382;5.270;2024-03-02T02:50:35;0.57;;;0.30;;
55655;SDS011;41530;52.382;5.270;2024-03-02T02:53:03;2.22;;;0.35;;
55655;SDS011;41530;52.382;5.270;2024-03-02T02:55:34;0.73;;;0.40;;
55655;SDS011;41530;52.382;5.270;2024-03-02T02:58:01;0.47;;;0.35;;
55655;SDS011;41530;52.382;5.270;2024-03-02T03:00:31;0.82;;;0.40;;
55655;SDS011;41530;52.382;5.270;2024-03-02T03:03:08;0.80;;;0.30;;
55655;SDS011;41530;52.382;5.270;2024-03-02T03:05:45;0.30;;;0.30;;
55655;SDS011;41530;52.382;5.270;2024-03-02T03:08:17;1.17;;;0.30;;
55655;SDS011;41530;52.382;5.270;2024-03-02T03:10:49;1.88;;;0.30;;
55655;SDS011;41530;52.382;5.270;2024-03-02T03:13:44;0.32;;;0.28;;
55655;SDS011;41530;52.382;5.270;2024-03-02T03:16:14;0.30;;;0.30;;
55655;SDS011;41530;52.382;5.270;2024-03-02T03:18:44;0.63;;;0.38;;
55655;SDS011;41530;52.382;5.270;2024-03-02T03:21:16;0.30;;;0.20;;
55655;SDS011;41530;52.382;5.270;2024-03-02T03:23:47;0.30;;;0.30;;
55655;SDS011;41530;52.382;5.270;2024-03-02T03:26:19;0.60;;;0.40;;
55655;SDS011;41530;52.382;5.270;2024-03-02T03:28:48;1.02;;;0.50;;
55655;SDS011;41530;52.382;5.270;2024-03-02T03:31:15;0.30;;;0.30;;
55655;SDS011;41530;52.382;5.270;2024-03-02T03:33:46;0.30;;;0.30;;
55655;SDS011;41530;52.382;5.270;2024-03-02T03:36:15;0.20;;;0.20;;
55655;SDS011;41530;52.382;5.270;2024-03-02T03:38:42;0.40;;;0.30;;
55655;SDS011;41530;52.382;5.270;2024-03-02T03:41:11;0.30;;;0.30;;
55655;SDS011;41530;52.382;5.270;2024-03-02T03:43:55;1.15;;;0.28;;
55655;SDS011;41530;52.382;5.270;2024-03-02T03:46:22;0.77;;;0.35;;
55655;SDS011;41530;52.382;5.270;2024-03-02T03:48:56;0.43;;;0.30;;
55655;SDS011;41530;52.382;5.270;2024-03-02T03:51:36;0.30;;;0.22;;
55655;SDS011;41530;52.382;5.270;2024-03-02T03:54:07;0.52;;;0.30;;
55655;SDS011;41530;52.382;5.270;2024-03-02T03:56:41;0.35;;;0.35;;
55655;SDS011;41530;52.382;5.270;2024-03-02T03:59:22;0.20;;;0.20;;
55655;SDS011;41530;52.382;5.270;2024-03-02T04:02:09;2.30;;;0.30;;
55655;SDS011;41530;52.382;5.270;2024-03-02T04:05:05;0.70;;;0.30;;
55655;SDS011;41530;52.382;5.270;2024-03-02T04:07:51;0.30;;;0.28;;
55655;SDS011;41530;52.382;5.270;2024-03-02T04:10:30;0.20;;;0.20;;
55655;SDS011;41530;52.382;5.270;2024-03-02T04:13:07;0.32;;;0.30;;
55655;SDS011;41530;52.382;5.270;2024-03-02T04:15:42;0.30;;;0.30;;
55655;SDS011;41530;52.382;5.270;2024-03-02T04:18:12;0.13;;;0.13;;
55655;SDS011;41530;52.382;5.270;2024-03-02T04:20:46;0.50;;;0.30;;
55655;SDS011;41530;52.382;5.270;2024-03-02T04:23:38;0.75;;;0.22;;
55655;SDS011;41530;52.382;5.270;2024-03-02T04:26:47;0.30;;;0.30;;
55655;SDS011;41530;52.382;5.270;2024-03-02T04:29:31;0.85;;;0.38;;
55655;SDS011;41530;52.382;5.270;2024-03-02T04:32:04;0.50;;;0.22;;
55655;SDS011;41530;52.382;5.270;2024-03-02T04:34:32;0.10;;;0.10;;
55655;SDS011;41530;52.382;5.270;2024-03-02T04:37:02;0.50;;;0.40;;
55655;SDS011;41530;52.382;5.270;2024-03-02T04:39:35;0.95;;;0.40;;
55655;SDS011;41530;52.382;5.270;2024-03-02T04:42:18;0.70;;;0.20;;
55655;SDS011;41530;52.382;5.270;2024-03-02T04:45:25;2.92;;;0.43;;
55655;SDS011;41530;52.382;5.270;2024-03-02T04:48:09;0.65;;;0.30;;
55655;SDS011;41530;52.382;5.270;2024-03-02T04:50:45;0.40;;;0.30;;
55655;SDS011;41530;52.382;5.270;2024-03-02T04:53:14;0.20;;;0.20;;
55655;SDS011;41530;52.382;5.270;2024-03-02T04:55:46;0.90;;;0.30;;
55655;SDS011;41530;52.382;5.270;2024-03-02T04:58:35;0.40;;;0.40;;
55655;SDS011;41530;52.382;5.270;2024-03-02T05:01:05;0.20;;;0.20;;
55655;SDS011;41530;52.382;5.270;2024-03-02T05:03:34;0.60;;;0.20;;
55655;SDS011;41530;52.382;5.270;2024-03-02T05:06:05;0.28;;;0.22;;
55655;SDS011;41530;52.382;5.270;2024-03-02T05:08:39;1.05;;;0.20;;
55655;SDS011;41530;52.382;5.270;2024-03-02T05:11:11;1.63;;;0.30;;
55655;SDS011;41530;52.382;5.270;2024-03-02T05:14:22;0.40;;;0.30;;
55655;SDS011;41530;52.382;5.270;2024-03-02T05:16:52;1.65;;;0.20;;
55655;SDS011;41530;52.382;5.270;2024-03-02T05:19:32;1.55;;;0.50;;
55655;SDS011;41530;52.382;5.270;2024-03-02T05:22:12;0.52;;;0.28;;
55655;SDS011;41530;52.382;5.270;2024-03-02T05:24:46;0.52;;;0.28;;
55655;SDS011;41530;52.382;5.270;2024-03-02T05:27:17;0.75;;;0.30;;
55655;SDS011;41530;52.382;5.270;2024-03-02T05:29:51;1.08;;;0.20;;
55655;SDS011;41530;52.382;5.270;2024-03-02T05:32:29;1.70;;;0.57;;
55655;SDS011;41530;52.382;5.270;2024-03-02T05:35:37;0.57;;;0.40;;
55655;SDS011;41530;52.382;5.270;2024-03-02T05:41:57;0.68;;;0.20;;
55655;SDS011;41530;52.382;5.270;2024-03-02T05:44:35;1.27;;;0.40;;
55655;SDS011;41530;52.382;5.270;2024-03-02T05:47:11;0.47;;;0.25;;
55655;SDS011;41530;52.382;5.270;2024-03-02T05:49:57;0.20;;;0.20;;
55655;SDS011;41530;52.382;5.270;2024-03-02T05:52:48;0.75;;;0.30;;
55655;SDS011;41530;52.382;5.270;2024-03-02T05:55:39;0.20;;;0.20;;
55655;SDS011;41530;52.382;5.270;2024-03-02T05:58:19;0.30;;;0.30;;
55655;SDS011;41530;52.382;5.270;2024-03-02T06:01:09;0.40;;;0.20;;
55655;SDS011;41530;52.382;5.270;2024-03-02T06:03:46;0.80;;;0.20;;
55655;SDS011;41530;52.382;5.270;2024-03-02T06:06:14;0.32;;;0.20;;
55655;SDS011;41530;52.382;5.270;2024-03-02T06:08:44;0.65;;;0.30;;
55655;SDS011;41530;52.382;5.270;2024-03-02T06:15:24;0.30;;;0.20;;
55655;SDS011;41530;52.382;5.270;2024-03-02T06:24:32;1.75;;;0.60;;
55655;SDS011;41530;52.382;5.270;2024-03-02T06:27:55;0.93;;;0.30;;
55655;SDS011;41530;52.382;5.270;2024-03-02T06:37:19;0.30;;;0.30;;
55655;SDS011;41530;52.382;5.270;2024-03-02T06:40:32;0.57;;;0.28;;
55655;SDS011;41530;52.382;5.270;2024-03-02T06:43:20;2.28;;;0.55;;
55655;SDS011;41530;52.382;5.270;2024-03-02T06:46:44;0.80;;;0.30;;
55655;SDS011;41530;52.382;5.270;2024-03-02T06:49:44;0.35;;;0.30;;
55655;SDS011;41530;52.382;5.270;2024-03-02T06:52:23;0.10;;;0.10;;
55655;SDS011;41530;52.382;5.270;2024-03-02T06:54:56;1.35;;;0.40;;
55655;SDS011;41530;52.382;5.270;2024-03-02T06:57:31;0.40;;;0.20;;
55655;SDS011;41530;52.382;5.270;2024-03-02T07:00:04;0.40;;;0.30;;
55655;SDS011;41530;52.382;5.270;2024-03-02T07:03:03;1.27;;;0.30;;
55655;SDS011;41530;52.382;5.270;2024-03-02T07:08:15;0.85;;;0.30;;
55655;SDS011;41530;52.382;5.270;2024-03-02T07:10:49;0.22;;;0.22;;
55655;SDS011;41530;52.382;5.270;2024-03-02T07:13:30;0.35;;;0.20;;
55655;SDS011;41530;52.382;5.270;2024-03-02T07:16:08;1.30;;;0.35;;
55655;SDS011;41530;52.382;5.270;2024-03-02T07:18:59;1.52;;;0.40;;
55655;SDS011;41530;52.382;5.270;2024-03-02T07:21:49;1.85;;;0.35;;
55655;SDS011;41530;52.382;5.270;2024-03-02T07:24:24;0.32;;;0.30;;
55655;SDS011;41530;52.382;5.270;2024-03-02T07:27:20;2.70;;;0.25;;
55655;SDS011;41530;52.382;5.270;2024-03-02T07:30:09;1.63;;;0.40;;
55655;SDS011;41530;52.382;5.270;2024-03-02T07:32:49;0.30;;;0.25;;
55655;SDS011;41530;52.382;5.270;2024-03-02T07:35:17;1.27;;;0.32;;
55655;SDS011;41530;52.382;5.270;2024-03-02T07:37:44;1.58;;;0.30;;
55655;SDS011;41530;52.382;5.270;2024-03-02T07:40:11;15.43;;;0.55;;
55655;SDS011;41530;52.382;5.270;2024-03-02T07:42:41;1.75;;;0.40;;
55655;SDS011;41530;52.382;5.270;2024-03-02T07:45:08;0.38;;;0.20;;
55655;SDS011;41530;52.382;5.270;2024-03-02T07:47:35;4.65;;;0.35;;
55655;SDS011;41530;52.382;5.270;2024-03-02T07:50:02;2.03;;;0.30;;
55655;SDS011;41530;52.382;5.270;2024-03-02T07:52:32;3.60;;;0.30;;
55655;SDS011;41530;52.382;5.270;2024-03-02T07:55:03;5.30;;;0.45;;
55655;SDS011;41530;52.382;5.270;2024-03-02T07:57:30;0.50;;;0.30;;
55655;SDS011;41530;52.382;5.270;2024-03-02T07:59:57;1.10;;;0.40;;
55655;SDS011;41530;52.382;5.270;2024-03-02T08:02:28;1.35;;;0.30;;
55655;SDS011;41530;52.382;5.270;2024-03-02T08:04:55;0.68;;;0.40;;
55655;SDS011;41530;52.382;5.270;2024-03-02T08:07:24;2.95;;;0.30;;
55655;SDS011;41530;52.382;5.270;2024-03-02T08:09:51;3.00;;;0.40;;
55655;SDS011;41530;52.382;5.270;2024-03-02T08:12:18;2.95;;;0.40;;
55655;SDS011;41530;52.382;5.270;2024-03-02T08:14:50;0.30;;;0.30;;
55655;SDS011;41530;52.382;5.270;2024-03-02T08:17:19;2.47;;;0.40;;
55655;SDS011;41530;52.382;5.270;2024-03-02T08:19:49;2.38;;;0.40;;
55655;SDS011;41530;52.382;5.270;2024-03-02T08:22:19;0.52;;;0.20;;
55655;SDS011;41530;52.382;5.270;2024-03-02T08:24:46;2.08;;;0.50;;
55655;SDS011;41530;52.382;5.270;2024-03-02T08:27:21;0.45;;;0.28;;
55655;SDS011;41530;52.382;5.270;2024-03-02T08:29:57;1.45;;;0.40;;
55655;SDS011;41530;52.382;5.270;2024-03-02T08:32:40;0.88;;;0.30;;
55655;SDS011;41530;52.382;5.270;2024-03-02T08:35:12;2.13;;;0.20;;
55655;SDS011;41530;52.382;5.270;2024-03-02T08:37:41;3.28;;;0.32;;
55655;SDS011;41530;52.382;5.270;2024-03-02T08:40:12;0.43;;;0.30;;
55655;SDS011;41530;52.382;5.270;2024-03-02T08:42:47;2.13;;;0.85;;
55655;SDS011;41530;52.382;5.270;2024-03-02T08:45:17;1.27;;;0.30;;
55655;SDS011;41530;52.382;5.270;2024-03-02T08:48:12;0.93;;;0.32;;
55655;SDS011;41530;52.382;5.270;2024-03-02T08:51:03;3.38;;;0.80;;
55655;SDS011;41530;52.382;5.270;2024-03-02T08:53:33;2.50;;;0.43;;
55655;SDS011;41530;52.382;5.270;2024-03-02T08:56:07;1.15;;;0.50;;
55655;SDS011;41530;52.382;5.270;2024-03-02T08:58:39;4.82;;;0.50;;
55655;SDS011;41530;52.382;5.270;2024-03-02T09:01:12;1.13;;;0.40;;
55655;SDS011;41530;52.382;5.270;2024-03-02T09:03:44;1.65;;;0.40;;
55655;SDS011;41530;52.382;5.270;2024-03-02T09:06:13;1.23;;;0.30;;
55655;SDS011;41530;52.382;5.270;2024-03-02T09:08:46;0.68;;;0.22;;
55655;SDS011;41530;52.382;5.270;2024-03-02T09:11:21;0.57;;;0.30;;
55655;SDS011;41530;52.382;5.270;2024-03-02T09:13:57;2.40;;;0.40;;
55655;SDS011;41530;52.382;5.270;2024-03-02T09:16:42;0.80;;;0.40;;
55655;SDS011;41530;52.382;5.270;2024-03-02T09:19:12;0.20;;;0.20;;
55655;SDS011;41530;52.382;5.270;2024-03-02T09:21:39;5.07;;;0.30;;
55655;SDS011;41530;52.382;5.270;2024-03-02T09:24:08;0.45;;;0.30;;
55655;SDS011;41530;52.382;5.270;2024-03-02T09:26:36;1.42;;;0.40;;
55655;SDS011;41530;52.382;5.270;2024-03-02T09:29:05;0.52;;;0.30;;
55655;SDS011;41530;52.382;5.270;2024-03-02T09:31:50;1.02;;;0.47;;
55655;SDS011;41530;52.382;5.270;2024-03-02T09:34:31;0.40;;;0.30;;
55655;SDS011;41530;52.382;5.270;2024-03-02T09:37:00;0.82;;;0.30;;
55655;SDS011;41530;52.382;5.270;2024-03-02T09:39:27;0.40;;;0.20;;
55655;SDS011;41530;52.382;5.270;2024-03-02T09:41:57;1.35;;;0.45;;
55655;SDS011;41530;52.382;5.270;2024-03-02T09:44:25;0.90;;;0.38;;
55655;SDS011;41530;52.382;5.270;2024-03-02T09:46:59;1.33;;;0.30;;
55655;SDS011;41530;52.382;5.270;2024-03-02T09:49:25;3.08;;;1.05;;
55655;SDS011;41530;52.382;5.270;2024-03-02T09:51:52;1.10;;;0.45;;
55655;SDS011;41530;52.382;5.270;2024-03-02T09:54:19;2.88;;;0.70;;
55655;SDS011;41530;52.382;5.270;2024-03-02T09:56:49;3.90;;;0.70;;
55655;SDS011;41530;52.382;5.270;2024-03-02T09:59:17;1.85;;;0.60;;
55655;SDS011;41530;52.382;5.270;2024-03-02T10:02:00;1.13;;;0.50;;
55655;SDS011;41530;52.382;5.270;2024-03-02T10:04:28;6.00;;;0.88;;
55655;SDS011;41530;52.382;5.270;2024-03-02T10:09:40;5.45;;;0.80;;
55655;SDS011;41530;52.382;5.270;2024-03-02T10:12:16;1.45;;;0.57;;
55655;SDS011;41530;52.382;5.270;2024-03-02T10:14:47;2.45;;;0.90;;
55655;SDS011;41530;52.382;5.270;2024-03-02T10:17:16;3.08;;;0.68;;
55655;SDS011;41530;52.382;5.270;2024-03-02T10:19:44;2.88;;;0.75;;
55655;SDS011;41530;52.382;5.270;2024-03-02T10:22:10;6.00;;;0.65;;
55655;SDS011;41530;52.382;5.270;2024-03-02T10:24:41;2.30;;;0.82;;
55655;SDS011;41530;52.382;5.270;2024-03-02T10:27:32;3.42;;;0.70;;
55655;SDS011;41530;52.382;5.270;2024-03-02T10:30:01;3.33;;;0.70;;
55655;SDS011;41530;52.382;5.270;2024-03-02T10:32:29;1.95;;;0.70;;
55655;SDS011;41530;52.382;5.270;2024-03-02T10:34:56;2.25;;;0.60;;
55655;SDS011;41530;52.382;5.270;2024-03-02T10:37:22;3.15;;;0.80;;
55655;SDS011;41530;52.382;5.270;2024-03-02T10:39:51;2.10;;;0.80;;
55655;SDS011;41530;52.382;5.270;2024-03-02T10:42:18;1.67;;;0.65;;
55655;SDS011;41530;52.382;5.270;2024-03-02T10:44:46;2.65;;;0.63;;
55655;SDS011;41530;52.382;5.270;2024-03-02T10:47:14;2.65;;;0.70;;
55655;SDS011;41530;52.382;5.270;2024-03-02T10:49:42;3.70;;;0.80;;
55655;SDS011;41530;52.382;5.270;2024-03-02T10:52:10;3.60;;;0.90;;
55655;SDS011;41530;52.382;5.270;2024-03-02T10:54:37;5.60;;;0.88;;
55655;SDS011;41530;52.382;5.270;2024-03-02T10:57:07;3.03;;;0.73;;
55655;SDS011;41530;52.382;5.270;2024-03-02T10:59:37;3.20;;;0.63;;
55655;SDS011;41530;52.382;5.270;2024-03-02T11:02:09;2.30;;;0.60;;
55655;SDS011;41530;52.382;5.270;2024-03-02T11:04:38;2.60;;;0.90;;
55655;SDS011;41530;52.382;5.270;2024-03-02T11:07:09;2.58;;;0.80;;
55655;SDS011;41530;52.382;5.270;2024-03-02T11:09:41;3.25;;;0.80;;
55655;SDS011;41530;52.382;5.270;2024-03-02T11:12:29;3.72;;;0.82;;
55655;SDS011;41530;52.382;5.270;2024-03-02T11:15:04;2.83;;;0.82;;
55655;SDS011;41530;52.382;5.270;2024-03-02T11:17:36;3.53;;;0.75;;
55655;SDS011;41530;52.382;5.270;2024-03-02T11:20:04;4.78;;;1.08;;
55655;SDS011;41530;52.382;5.270;2024-03-02T11:22:31;2.88;;;0.95;;
55655;SDS011;41530;52.382;5.270;2024-03-02T11:24:58;3.40;;;0.68;;
55655;SDS011;41530;52.382;5.270;2024-03-02T11:33:02;1.98;;;0.60;;
55655;SDS011;41530;52.382;5.270;2024-03-02T11:35:42;3.03;;;0.93;;
55655;SDS011;41530;52.382;5.270;2024-03-02T11:38:13;2.90;;;0.93;;
55655;SDS011;41530;52.382;5.270;2024-03-02T11:40:40;2.15;;;0.68;;
55655;SDS011;41530;52.382;5.270;2024-03-02T11:43:07;2.08;;;0.60;;
55655;SDS011;41530;52.382;5.270;2024-03-02T11:45:35;2.78;;;0.70;;
55655;SDS011;41530;52.382;5.270;2024-03-02T11:48:06;2.65;;;0.85;;
55655;SDS011;41530;52.382;5.270;2024-03-02T11:50:42;3.58;;;0.80;;
55655;SDS011;41530;52.382;5.270;2024-03-02T11:53:13;1.33;;;0.50;;
55655;SDS011;41530;52.382;5.270;2024-03-02T11:55:40;3.00;;;0.90;;
55655;SDS011;41530;52.382;5.270;2024-03-02T11:58:10;3.88;;;0.85;;
55655;SDS011;41530;52.382;5.270;2024-03-02T12:00:36;3.72;;;0.93;;
55655;SDS011;41530;52.382;5.270;2024-03-02T12:03:04;2.45;;;0.70;;
55655;SDS011;41530;52.382;5.270;2024-03-02T12:05:32;2.55;;;0.70;;
55655;SDS011;41530;52.382;5.270;2024-03-02T12:08:00;2.13;;;0.80;;
55655;SDS011;41530;52.382;5.270;2024-03-02T12:10:31;4.90;;;1.00;;
55655;SDS011;41530;52.382;5.270;2024-03-02T12:12:58;3.72;;;0.50;;
55655;SDS011;41530;52.382;5.270;2024-03-02T12:15:29;3.17;;;0.90;;
55655;SDS011;41530;52.382;5.270;2024-03-02T12:18:01;4.75;;;0.63;;
55655;SDS011;41530;52.382;5.270;2024-03-02T12:20:29;3.20;;;0.70;;
55655;SDS011;41530;52.382;5.270;2024-03-02T12:23:00;3.00;;;0.90;;
55655;SDS011;41530;52.382;5.270;2024-03-02T12:25:29;2.50;;;0.60;;
55655;SDS011;41530;52.382;5.270;2024-03-02T12:27:58;2.10;;;0.70;;
55655;SDS011;41530;52.382;5.270;2024-03-02T12:30:29;2.83;;;0.77;;
55655;SDS011;41530;52.382;5.270;2024-03-02T12:32:56;2.90;;;0.98;;
55655;SDS011;41530;52.382;5.270;2024-03-02T12:35:24;1.65;;;0.70;;
55655;SDS011;41530;52.382;5.270;2024-03-02T12:37:52;1.80;;;0.70;;
55655;SDS011;41530;52.382;5.270;2024-03-02T12:40:20;1.55;;;0.55;;
55655;SDS011;41530;52.382;5.270;2024-03-02T12:42:49;2.50;;;0.80;;
55655;SDS011;41530;52.382;5.270;2024-03-02T12:45:16;1.35;;;0.50;;
55655;SDS011;41530;52.382;5.270;2024-03-02T12:47:51;1.67;;;0.60;;
55655;SDS011;41530;52.382;5.270;2024-03-02T12:50:18;5.72;;;0.85;;
55655;SDS011;41530;52.382;5.270;2024-03-02T12:52:52;1.42;;;0.68;;
55655;SDS011;41530;52.382;5.270;2024-03-02T12:55:20;1.38;;;0.50;;
55655;SDS011;41530;52.382;5.270;2024-03-02T12:57:51;1.38;;;0.57;;
55655;SDS011;41530;52.382;5.270;2024-03-02T13:00:20;1.88;;;0.60;;
55655;SDS011;41530;52.382;5.270;2024-03-02T13:02:48;2.70;;;0.65;;
55655;SDS011;41530;52.382;5.270;2024-03-02T13:05:17;3.10;;;0.80;;
55655;SDS011;41530;52.382;5.270;2024-03-02T13:07:46;1.35;;;0.55;;
55655;SDS011;41530;52.382;5.270;2024-03-02T13:10:14;2.13;;;0.60;;
55655;SDS011;41530;52.382;5.270;2024-03-02T13:12:42;1.52;;;0.60;;
55655;SDS011;41530;52.382;5.270;2024-03-02T13:15:09;1.25;;;0.50;;
55655;SDS011;41530;52.382;5.270;2024-03-02T13:17:41;0.82;;;0.43;;
55655;SDS011;41530;52.382;5.270;2024-03-02T13:20:10;2.85;;;0.70;;
55655;SDS011;41530;52.382;5.270;2024-03-02T13:22:41;4.32;;;0.60;;
55655;SDS011;41530;52.382;5.270;2024-03-02T13:25:08;2.10;;;0.40;;
55655;SDS011;41530;52.382;5.270;2024-03-02T13:27:38;3.50;;;0.57;;
55655;SDS011;41530;52.382;5.270;2024-03-02T13:30:05;2.55;;;0.65;;
55655;SDS011;41530;52.382;5.270;2024-03-02T13:32:35;0.82;;;0.50;;
55655;SDS011;41530;52.382;5.270;2024-03-02T13:35:01;1.48;;;0.47;;
55655;SDS011;41530;52.382;5.270;2024-03-02T13:37:29;1.80;;;0.65;;
55655;SDS011;41530;52.382;5.270;2024-03-02T13:39:56;2.05;;;0.50;;
55655;SDS011;41530;52.382;5.270;2024-03-02T13:42:22;2.95;;;0.65;;
55655;SDS011;41530;52.382;5.270;2024-03-02T13:44:49;0.93;;;0.43;;
55655;SDS011;41530;52.382;5.270;2024-03-02T13:47:17;2.38;;;0.60;;
55655;SDS011;41530;52.382;5.270;2024-03-02T13:49:44;1.55;;;0.50;;
55655;SDS011;41530;52.382;5.270;2024-03-02T13:52:13;0.65;;;0.30;;
55655;SDS011;41530;52.382;5.270;2024-03-02T13:54:41;0.88;;;0.40;;
55655;SDS011;41530;52.382;5.270;2024-03-02T13:57:10;1.13;;;0.40;;
55655;SDS011;41530;52.382;5.270;2024-03-02T13:59:37;0.65;;;0.40;;
55655;SDS011;41530;52.382;5.270;2024-03-02T14:02:05;2.05;;;0.57;;
55655;SDS011;41530;52.382;5.270;2024-03-02T14:04:35;2.10;;;0.70;;
55655;SDS011;41530;52.382;5.270;2024-03-02T14:07:04;2.10;;;0.50;;
55655;SDS011;41530;52.382;5.270;2024-03-02T14:09:35;1.20;;;0.43;;
55655;SDS011;41530;52.382;5.270;2024-03-02T14:12:03;0.50;;;0.30;;
55655;SDS011;41530;52.382;5.270;2024-03-02T14:14:32;1.88;;;0.70;;
55655;SDS011;41530;52.382;5.270;2024-03-02T14:16:59;1.15;;;0.50;;
55655;SDS011;41530;52.382;5.270;2024-03-02T14:19:30;3.40;;;0.47;;
55655;SDS011;41530;52.382;5.270;2024-03-02T14:21:57;1.45;;;0.43;;
55655;SDS011;41530;52.382;5.270;2024-03-02T14:24:24;1.48;;;0.70;;
55655;SDS011;41530;52.382;5.270;2024-03-02T14:26:52;1.45;;;0.60;;
55655;SDS011;41530;52.382;5.270;2024-03-02T14:29:28;1.13;;;0.50;;
55655;SDS011;41530;52.382;5.270;2024-03-02T14:31:55;1.10;;;0.47;;
55655;SDS011;41530;52.382;5.270;2024-03-02T14:34:22;1.23;;;0.47;;
55655;SDS011;41530;52.382;5.270;2024-03-02T14:36:49;2.25;;;0.65;;
55655;SDS011;41530;52.382;5.270;2024-03-02T14:39:16;2.17;;;0.82;;
55655;SDS011;41530;52.382;5.270;2024-03-02T14:41:43;2.45;;;0.70;;
55655;SDS011;41530;52.382;5.270;2024-03-02T14:44:09;1.30;;;0.50;;
55655;SDS011;41530;52.382;5.270;2024-03-02T14:46:36;1.90;;;0.70;;
55655;SDS011;41530;52.382;5.270;2024-03-02T14:49:03;4.70;;;0.63;;
55655;SDS011;41530;52.382;5.270;2024-03-02T14:51:30;2.22;;;0.63;;
55655;SDS011;41530;52.382;5.270;2024-03-02T14:53:57;1.15;;;0.45;;
55655;SDS011;41530;52.382;5.270;2024-03-02T14:56:24;0.82;;;0.50;;
55655;SDS011;41530;52.382;5.270;2024-03-02T14:58:51;0.82;;;0.32;;
55655;SDS011;41530;52.382;5.270;2024-03-02T15:01:17;3.42;;;0.88;;
55655;SDS011;41530;52.382;5.270;2024-03-02T15:03:47;1.27;;;0.50;;
55655;SDS011;41530;52.382;5.270;2024-03-02T15:06:15;1.60;;;0.80;;
55655;SDS011;41530;52.382;5.270;2024-03-02T15:08:42;2.67;;;0.60;;
55655;SDS011;41530;52.382;5.270;2024-03-02T15:11:09;1.08;;;0.50;;
55655;SDS011;41530;52.382;5.270;2024-03-02T15:13:37;1.27;;;0.40;;
55655;SDS011;41530;52.382;5.270;2024-03-02T15:16:03;1.55;;;0.40;;
55655;SDS011;41530;52.382;5.270;2024-03-02T15:18:30;4.22;;;0.40;;
55655;SDS011;41530;52.382;5.270;2024-03-02T15:20:57;0.70;;;0.47;;
55655;SDS011;41530;52.382;5.270;2024-03-02T15:23:24;2.40;;;0.55;;
55655;SDS011;41530;52.382;5.270;2024-03-02T15:25:50;1.40;;;0.45;;
55655;SDS011;41530;52.382;5.270;2024-03-02T15:30:59;1.05;;;0.40;;
55655;SDS011;41530;52.382;5.270;2024-03-02T15:33:26;1.23;;;0.52;;
55655;SDS011;41530;52.382;5.270;2024-03-02T15:35:58;3.10;;;0.52;;
55655;SDS011;41530;52.382;5.270;2024-03-02T15:38:27;1.30;;;0.50;;
55655;SDS011;41530;52.382;5.270;2024-03-02T15:41:00;2.60;;;0.57;;
55655;SDS011;41530;52.382;5.270;2024-03-02T15:43:27;0.73;;;0.40;;
55655;SDS011;41530;52.382;5.270;2024-03-02T15:45:54;1.23;;;0.60;;
55655;SDS011;41530;52.382;5.270;2024-03-02T15:48:21;3.72;;;0.57;;
55655;SDS011;41530;52.382;5.270;2024-03-02T15:50:49;0.98;;;0.30;;
55655;SDS011;41530;52.382;5.270;2024-03-02T15:53:18;1.38;;;0.47;;
55655;SDS011;41530;52.382;5.270;2024-03-02T15:55:45;1.80;;;0.68;;
55655;SDS011;41530;52.382;5.270;2024-03-02T15:58:12;1.70;;;0.55;;
55655;SDS011;41530;52.382;5.270;2024-03-02T16:00:38;3.90;;;0.77;;
55655;SDS011;41530;52.382;5.270;2024-03-02T16:03:06;4.25;;;0.50;;
55655;SDS011;41530;52.382;5.270;2024-03-02T16:05:32;2.22;;;0.50;;
55655;SDS011;41530;52.382;5.270;2024-03-02T16:07:59;0.65;;;0.40;;
55655;SDS011;41530;52.382;5.270;2024-03-02T16:10:26;1.73;;;0.57;;
55655;SDS011;41530;52.382;5.270;2024-03-02T16:12:53;2.22;;;0.70;;
55655;SDS011;41530;52.382;5.270;2024-03-02T16:15:22;0.88;;;0.50;;